Time;durP1;ratioP1;P1;durP2;ratioP2;P2;SDS_P1;SDS_P2;PMS_P1;PMS_P2;Temp;Humidity;BMP_temperature;BMP_pressure;BME280_temperature;BME280_humidity;BME280_pressure;Samples;Min_cycle;Max_cycle;Signal;HPM_P1;HPM_P2
2021/12/14 00:02:15;;;;;;;;;;;8.10;94.20;;;;;;5114429;28;19923;-79
2021/12/14 00:04:42;;;;;;;;;;;8.10;94.90;;;;;;5097594;28;20003;-79
2021/12/14 00:07:10;;;;;;;;;;;8.10;94.60;;;;;;5114428;28;19916;-79
2021/12/14 00:09:39;;;;;;;;;;;8.10;94.30;;;;;;5114725;28;19915;-77
2021/12/14 00:17:21;;;;;;;;;;;8.10;94.20;;;;;;5114315;28;19916;-79
2021/12/14 00:19:48;;;;;;;;;;;8.10;94.20;;;;;;5114471;28;19931;-78
2021/12/14 00:24:06;;;;;;;;;;;8.10;93.90;;;;;;5097006;28;19958;-77
2021/12/14 00:25:03;;;;;;;;;;;8.10;93.60;;;;;;5108763;28;20006;-77
2021/12/14 00:27:29;;;;;;;;;;;8.10;93.90;;;;;;5097138;28;20011;-78
2021/12/14 00:29:56;;;;;;;;;;;8.10;93.70;;;;;;5113991;28;19958;-79
2021/12/14 00:32:24;;;;;;;;;;;8.20;93.80;;;;;;5113942;28;19916;-78
2021/12/14 00:34:51;;;;;;;;;;;8.30;92.90;;;;;;5113829;28;19926;-78
2021/12/14 00:37:19;;;;;;;;;;;8.20;93.40;;;;;;5113820;28;19927;-78
2021/12/14 00:39:46;;;;;;;;;;;8.20;93.30;;;;;;5113873;28;20008;-77
2021/12/14 00:42:11;;;;;;;;;;;8.20;93.30;;;;;;5113586;28;19920;-78
2021/12/14 00:44:37;;;;;;;;;;;8.20;93.40;;;;;;5113891;28;19925;-78
2021/12/14 00:47:03;;;;;;;;;;;8.20;93.30;;;;;;5096711;28;19915;-79
2021/12/14 00:49:30;;;;;;;;;;;8.20;93.40;;;;;;5096708;28;19916;-79
2021/12/14 00:51:55;;;;;;;;;;;8.30;93.30;;;;;;5113769;28;20279;-78
2021/12/14 00:54:21;;;;;;;;;;;8.20;93.20;;;;;;5113455;28;19916;-78
2021/12/14 00:56:48;;;;;;;;;;;8.20;93.30;;;;;;5096537;28;20375;-78
2021/12/14 00:59:14;;;;;;;;;;;8.20;93.50;;;;;;5096561;28;19972;-78
2021/12/14 01:01:42;;;;;;;;;;;8.20;93.30;;;;;;5113388;28;19923;-78
2021/12/14 01:04:10;;;;;;;;;;;8.20;93.30;;;;;;5113336;28;19962;-78
2021/12/14 01:06:37;;;;;;;;;;;8.20;93.30;;;;;;5096291;28;19915;-77
2021/12/14 01:09:05;;;;;;;;;;;8.20;93.20;;;;;;5096367;28;19966;-77
2021/12/14 01:11:35;;;;;;;;;;;8.10;93.30;;;;;;5096247;28;19919;-77
2021/12/14 01:14:14;;;;;;;;;;;8.10;93.50;;;;;;5113212;28;20275;-78
2021/12/14 01:16:54;;;;;;;;;;;8.10;93.40;;;;;;5096560;28;19923;-78
2021/12/14 01:19:26;;;;;;;;;;;8.10;93.30;;;;;;5096347;28;19915;-78
2021/12/14 01:22:16;;;;;;;;;;;8.10;93.60;;;;;;5112957;28;19924;-78
2021/12/14 01:25:02;;;;;;;;;;;8.10;93.70;;;;;;5096436;28;20320;-77
2021/12/14 01:27:34;;;;;;;;;;;8.10;93.80;;;;;;5112930;28;19922;-78
2021/12/14 01:30:05;;;;;;;;;;;8.00;93.90;;;;;;5113219;28;20283;-79
2021/12/14 01:32:35;;;;;;;;;;;8.10;93.80;;;;;;5112822;28;19922;-78
2021/12/14 01:35:01;;;;;;;;;;;8.10;93.70;;;;;;5095904;28;19920;-77
2021/12/14 01:37:29;;;;;;;;;;;8.10;93.70;;;;;;5112877;28;20003;-79
2021/12/14 01:42:23;;;;;;;;;;;8.10;93.90;;;;;;5112601;28;20014;-78
2021/12/14 01:44:54;;;;;;;;;;;8.10;93.90;;;;;;5113036;28;19915;-77
2021/12/14 01:47:21;;;;;;;;;;;8.10;93.70;;;;;;5112751;28;19916;-78
2021/12/14 01:49:48;;;;;;;;;;;8.10;93.70;;;;;;5112996;28;19923;-78
2021/12/14 01:52:17;;;;;;;;;;;8.10;93.60;;;;;;5112974;28;20026;-78
2021/12/14 01:54:45;;;;;;;;;;;8.10;93.60;;;;;;5096419;28;19915;-77
2021/12/14 01:57:13;;;;;;;;;;;8.10;93.70;;;;;;5113285;28;19922;-78
2021/12/14 01:59:41;;;;;;;;;;;8.10;93.70;;;;;;5096281;28;19961;-79
2021/12/14 02:04:43;;;;;;;;;;;8.10;93.50;;;;;;5112817;28;19978;-77
2021/12/14 02:07:10;;;;;;;;;;;8.10;93.60;;;;;;5112684;28;19922;-78
2021/12/14 02:09:37;;;;;;;;;;;8.10;93.40;;;;;;5112847;28;20002;-78
2021/12/14 02:12:14;;;;;;;;;;;8.20;93.20;;;;;;5095845;28;20375;-77
2021/12/14 02:14:40;;;;;;;;;;;8.20;93.20;;;;;;5096428;28;20337;-78
2021/12/14 02:17:08;;;;;;;;;;;8.10;93.40;;;;;;5096202;28;19966;-78
2021/12/14 02:19:34;;;;;;;;;;;8.20;93.30;;;;;;5113426;28;19916;-78
2021/12/14 02:22:01;;;;;;;;;;;8.10;93.40;;;;;;5114718;28;20263;-78
2021/12/14 02:24:28;;;;;;;;;;;8.20;93.30;;;;;;5117193;28;19915;-78
2021/12/14 02:26:54;;;;;;;;;;;8.20;93.50;;;;;;5117521;28;20390;-78
2021/12/14 02:29:22;;;;;;;;;;;8.20;93.30;;;;;;5117041;28;19999;-78
2021/12/14 02:31:48;;;;;;;;;;;8.10;93.50;;;;;;5117161;28;19938;-78
2021/12/14 02:34:14;;;;;;;;;;;8.20;93.60;;;;;;5117149;28;19920;-78
2021/12/14 02:36:42;;;;;;;;;;;8.10;93.50;;;;;;5116688;28;19919;-78
2021/12/14 02:39:22;;;;;;;;;;;8.10;93.70;;;;;;5116822;28;19923;-79
2021/12/14 02:41:49;;;;;;;;;;;8.10;93.80;;;;;;5116544;28;19919;-78
2021/12/14 02:44:15;;;;;;;;;;;8.10;93.70;;;;;;5099822;28;19915;-79
2021/12/14 02:46:43;;;;;;;;;;;8.10;93.90;;;;;;5116562;28;19915;-78
2021/12/14 02:49:11;;;;;;;;;;;8.10;93.90;;;;;;5116866;28;19989;-78
2021/12/14 02:51:47;;;;;;;;;;;8.10;93.90;;;;;;5116476;28;20022;-78
2021/12/14 02:54:15;;;;;;;;;;;8.20;93.80;;;;;;5099754;28;19920;-78
2021/12/14 02:56:41;;;;;;;;;;;8.10;93.70;;;;;;5116514;28;19922;-79
2021/12/14 02:59:18;;;;;;;;;;;8.20;93.70;;;;;;5116547;28;19958;-77
2021/12/14 03:01:45;;;;;;;;;;;8.10;93.70;;;;;;5116545;28;19920;-77
2021/12/14 03:04:11;;;;;;;;;;;8.20;93.70;;;;;;5116245;28;19923;-78
2021/12/14 03:06:48;;;;;;;;;;;8.10;93.90;;;;;;5116204;28;19920;-78
2021/12/14 03:12:12;;;;;;;;;;;8.10;94.10;;;;;;5115860;28;19963;-77
2021/12/14 03:14:40;;;;;;;;;;;8.20;94.20;;;;;;5116179;28;20010;-78
2021/12/14 03:17:06;;;;;;;;;;;8.10;94.00;;;;;;5115633;28;19916;-77
2021/12/14 03:19:32;;;;;;;;;;;8.20;94.00;;;;;;5115628;28;19916;-78
2021/12/14 03:21:58;;;;;;;;;;;8.10;94.20;;;;;;5098498;28;19920;-78
2021/12/14 03:24:23;;;;;;;;;;;8.10;94.20;;;;;;5115515;28;20275;-79
2021/12/14 03:26:51;;;;;;;;;;;8.10;94.10;;;;;;5115727;28;19915;-78
2021/12/14 03:29:26;;;;;;;;;;;8.20;94.10;;;;;;5115709;28;19943;-77
2021/12/14 03:31:55;;;;;;;;;;;8.20;93.90;;;;;;5098298;28;19962;-78
2021/12/14 03:34:25;;;;;;;;;;;8.10;94.10;;;;;;5114233;28;19938;-78
2021/12/14 03:36:53;;;;;;;;;;;8.20;94.20;;;;;;5115134;28;19920;-78
2021/12/14 03:39:39;;;;;;;;;;;8.20;94.20;;;;;;5115326;28;19916;-78
2021/12/14 03:42:10;;;;;;;;;;;8.20;94.40;;;;;;5115358;28;19920;-78
2021/12/14 03:44:35;;;;;;;;;;;8.10;94.30;;;;;;5098718;28;19916;-78
2021/12/14 03:47:05;;;;;;;;;;;8.30;94.30;;;;;;5115236;28;19922;-78
2021/12/14 03:49:33;;;;;;;;;;;8.30;94.60;;;;;;5098878;28;20358;-78
2021/12/14 03:51:58;;;;;;;;;;;8.20;94.50;;;;;;5115208;28;20367;-78
2021/12/14 03:54:24;;;;;;;;;;;8.20;94.80;;;;;;5115260;28;19930;-78
2021/12/14 03:56:51;;;;;;;;;;;8.20;94.90;;;;;;5098192;28;19957;-78
2021/12/14 03:59:17;;;;;;;;;;;8.20;95.00;;;;;;5115347;28;19915;-79
2021/12/14 04:01:44;;;;;;;;;;;8.10;95.40;;;;;;5115120;28;19927;-79
2021/12/14 04:04:18;;;;;;;;;;;8.10;95.20;;;;;;5114941;28;19916;-77
2021/12/14 04:06:44;;;;;;;;;;;8.10;95.50;;;;;;5115200;28;19980;-77
2021/12/14 04:09:12;;;;;;;;;;;8.10;95.40;;;;;;5115173;28;20351;-78
2021/12/14 04:11:38;;;;;;;;;;;8.10;95.40;;;;;;5114747;28;20379;-77
2021/12/14 04:14:07;;;;;;;;;;;8.10;95.30;;;;;;5098098;28;19923;-78
2021/12/14 04:16:33;;;;;;;;;;;8.10;95.50;;;;;;5114894;28;19923;-79
2021/12/14 04:19:04;;;;;;;;;;;8.10;95.70;;;;;;5097752;28;19915;-78
2021/12/14 04:21:30;;;;;;;;;;;8.10;95.60;;;;;;5114720;28;19920;-78
2021/12/14 04:23:56;;;;;;;;;;;8.10;95.90;;;;;;5115376;28;19915;-78
2021/12/14 04:26:22;;;;;;;;;;;8.00;95.80;;;;;;5115083;28;20449;-79
2021/12/14 04:28:52;;;;;;;;;;;8.10;95.70;;;;;;5114526;28;20256;-78
2021/12/14 04:31:18;;;;;;;;;;;8.10;95.30;;;;;;5114575;28;19955;-77
2021/12/14 04:33:46;;;;;;;;;;;8.10;95.50;;;;;;5080558;28;20286;-79
2021/12/14 04:36:14;;;;;;;;;;;8.10;95.70;;;;;;5097508;28;20312;-77
2021/12/14 04:38:50;;;;;;;;;;;8.10;95.80;;;;;;5114280;28;20371;-77
2021/12/14 04:52:18;;;;;;;;;;;8.10;96.10;;;;;;5114089;28;19958;-77
2021/12/14 04:54:48;;;;;;;;;;;8.10;96.00;;;;;;5114157;28;19916;-78
2021/12/14 04:57:21;;;;;;;;;;;8.10;96.10;;;;;;5114162;28;19969;-77
2021/12/14 04:59:47;;;;;;;;;;;8.10;95.90;;;;;;5113960;28;19920;-78
2021/12/14 05:02:15;;;;;;;;;;;8.10;96.20;;;;;;5113895;28;19920;-77
2021/12/14 05:04:41;;;;;;;;;;;8.10;96.30;;;;;;5114069;28;19922;-77
2021/12/14 05:07:33;;;;;;;;;;;8.10;96.20;;;;;;5114488;28;20034;-77
2021/12/14 05:10:01;;;;;;;;;;;8.10;96.00;;;;;;5114008;28;20397;-78
2021/12/14 05:12:31;;;;;;;;;;;8.10;96.10;;;;;;5096833;28;19962;-77
2021/12/14 05:15:02;;;;;;;;;;;8.10;96.00;;;;;;5113780;28;19919;-78
2021/12/14 05:17:30;;;;;;;;;;;8.10;96.00;;;;;;5113715;28;19919;-78
2021/12/14 05:19:56;;;;;;;;;;;8.10;96.20;;;;;;5097058;28;19923;-78
2021/12/14 05:22:24;;;;;;;;;;;8.10;96.10;;;;;;5096430;28;20363;-77
2021/12/14 05:24:51;;;;;;;;;;;8.10;96.30;;;;;;5113612;28;19951;-77
2021/12/14 05:27:29;;;;;;;;;;;8.10;96.40;;;;;;5113533;28;19919;-78
2021/12/14 05:30:03;;;;;;;;;;;8.10;96.30;;;;;;5113544;28;19944;-77
2021/12/14 05:32:29;;;;;;;;;;;8.10;96.20;;;;;;5096459;28;19922;-79
2021/12/14 05:34:54;;;;;;;;;;;8.00;96.60;;;;;;5113328;28;19920;-78
2021/12/14 05:37:22;;;;;;;;;;;8.10;96.70;;;;;;5113475;28;19916;-78
2021/12/14 05:39:54;;;;;;;;;;;8.00;96.90;;;;;;5113477;28;19922;-78
2021/12/14 05:45:13;;;;;;;;;;;7.90;97.00;;;;;;5113346;28;19958;-77
2021/12/14 05:47:47;;;;;;;;;;;8.00;96.70;;;;;;5096507;28;19941;-78
2021/12/14 05:50:19;;;;;;;;;;;8.00;96.80;;;;;;5113158;28;19916;-78
2021/12/14 05:52:45;;;;;;;;;;;7.90;97.10;;;;;;5113286;28;19922;-80
2021/12/14 05:55:12;;;;;;;;;;;7.90;97.40;;;;;;5113329;28;19916;-78
2021/12/14 05:57:38;;;;;;;;;;;7.80;97.60;;;;;;5112521;28;20427;-77
2021/12/14 06:00:05;;;;;;;;;;;7.80;97.60;;;;;;5096019;28;19915;-79
2021/12/14 06:02:30;;;;;;;;;;;7.80;97.70;;;;;;5095855;28;19923;-79
2021/12/14 06:04:56;;;;;;;;;;;7.90;97.30;;;;;;5096404;28;20325;-79
2021/12/14 06:07:23;;;;;;;;;;;7.80;97.40;;;;;;5113092;28;20298;-79
2021/12/14 06:09:50;;;;;;;;;;;7.90;97.30;;;;;;5113603;28;19919;-78
2021/12/14 06:12:17;;;;;;;;;;;7.80;97.20;;;;;;5113066;28;19962;-77
2021/12/14 06:14:51;;;;;;;;;;;7.80;97.20;;;;;;5113050;28;19922;-79
2021/12/14 06:17:22;;;;;;;;;;;7.80;97.30;;;;;;5096166;28;20295;-79
2021/12/14 06:19:49;;;;;;;;;;;7.80;97.30;;;;;;5112940;28;19923;-77
2021/12/14 06:22:16;;;;;;;;;;;7.80;97.40;;;;;;5112867;28;19974;-78
2021/12/14 06:24:43;;;;;;;;;;;7.80;97.70;;;;;;5112924;28;19915;-79
2021/12/14 06:27:10;;;;;;;;;;;7.80;97.90;;;;;;5112891;28;19915;-78
2021/12/14 06:29:37;;;;;;;;;;;7.80;97.80;;;;;;5113206;28;19922;-79
2021/12/14 06:32:29;;;;;;;;;;;7.80;97.90;;;;;;5112804;28;19916;-78
2021/12/14 06:34:57;;;;;;;;;;;7.80;98.10;;;;;;5109472;28;19927;-78
2021/12/14 06:40:04;;;;;;;;;;;7.80;97.80;;;;;;5113536;28;19965;-77
2021/12/14 06:42:30;;;;;;;;;;;7.80;98.10;;;;;;5095463;28;19919;-78
2021/12/14 06:45:07;;;;;;;;;;;7.80;98.10;;;;;;5112823;28;19916;-78
2021/12/14 06:47:33;;;;;;;;;;;7.80;98.20;;;;;;5113050;28;19916;-77
2021/12/14 06:50:00;;;;;;;;;;;7.80;98.10;;;;;;5112768;28;19919;-78
2021/12/14 06:52:26;;;;;;;;;;;7.80;97.80;;;;;;5112719;28;19970;-79
2021/12/14 06:54:51;;;;;;;;;;;7.80;98.00;;;;;;5112878;28;19955;-78
2021/12/14 06:57:17;;;;;;;;;;;7.80;98.00;;;;;;5095786;28;19915;-79
2021/12/14 06:59:43;;;;;;;;;;;7.80;98.10;;;;;;5113014;28;19923;-78
2021/12/14 07:02:09;;;;;;;;;;;7.80;98.10;;;;;;5112434;28;20287;-78
2021/12/14 07:04:36;;;;;;;;;;;7.80;98.10;;;;;;5113055;28;19916;-79
2021/12/14 07:07:07;;;;;;;;;;;7.80;98.00;;;;;;5122371;27;19915;-79
2021/12/14 07:09:38;;;;;;;;;;;7.80;98.00;;;;;;5124827;27;19922;-79
2021/12/14 07:12:06;;;;;;;;;;;7.90;97.80;;;;;;5122169;27;19941;-77
2021/12/14 07:14:32;;;;;;;;;;;7.90;98.00;;;;;;5114969;28;19967;-80
2021/12/14 07:17:27;;;;;;;;;;;7.80;98.10;;;;;;5114889;28;19974;-80
2021/12/14 07:19:54;;;;;;;;;;;7.80;98.00;;;;;;5113408;28;20375;-79
2021/12/14 07:22:32;;;;;;;;;;;7.90;97.90;;;;;;5115247;28;19919;-80
2021/12/14 07:24:57;;;;;;;;;;;7.90;97.80;;;;;;5115284;28;19919;-78
2021/12/14 07:27:26;;;;;;;;;;;7.80;98.10;;;;;;5098911;28;20279;-78
2021/12/14 07:29:52;;;;;;;;;;;7.90;98.00;;;;;;5115650;28;19915;-78
2021/12/14 07:32:39;;;;;;;;;;;7.90;97.90;;;;;;5098771;28;19915;-79
2021/12/14 07:35:13;;;;;;;;;;;7.90;98.10;;;;;;5098534;28;19920;-80
2021/12/14 07:37:38;;;;;;;;;;;7.80;98.20;;;;;;5115364;28;19915;-79
2021/12/14 07:40:04;;;;;;;;;;;7.80;98.30;;;;;;5115608;28;19923;-78
2021/12/14 07:42:30;;;;;;;;;;;7.80;98.40;;;;;;5098391;28;20432;-80
2021/12/14 07:44:55;;;;;;;;;;;7.80;98.40;;;;;;5098223;28;19922;-78
2021/12/14 07:47:21;;;;;;;;;;;7.80;98.30;;;;;;5115288;28;19916;-79
2021/12/14 07:49:54;;;;;;;;;;;7.80;98.20;;;;;;5115059;28;20010;-80
2021/12/14 07:52:21;;;;;;;;;;;7.80;98.40;;;;;;5115163;28;20049;-76
2021/12/14 07:54:48;;;;;;;;;;;7.80;98.40;;;;;;5114679;28;19919;-79
2021/12/14 07:57:20;;;;;;;;;;;7.80;98.30;;;;;;5114901;28;19925;-80
2021/12/14 07:59:48;;;;;;;;;;;7.90;98.30;;;;;;5114976;28;19922;-77
2021/12/14 08:02:31;;;;;;;;;;;7.90;98.20;;;;;;5097926;28;19931;-79
2021/12/14 08:05:11;;;;;;;;;;;7.90;98.20;;;;;;5114953;28;19927;-77
2021/12/14 08:07:38;;;;;;;;;;;8.00;98.20;;;;;;5114402;28;20028;-79
2021/12/14 08:10:32;;;;;;;;;;;7.90;98.40;;;;;;5098004;28;19923;-79
2021/12/14 08:13:13;;;;;;;;;;;7.90;98.30;;;;;;5112426;28;19919;-77
2021/12/14 08:15:40;;;;;;;;;;;7.90;98.20;;;;;;5115300;28;19915;-80
2021/12/14 08:18:09;;;;;;;;;;;7.90;98.30;;;;;;5114733;28;19957;-80
2021/12/14 08:20:37;;;;;;;;;;;7.90;98.30;;;;;;5114008;28;19985;-79
2021/12/14 08:23:13;;;;;;;;;;;7.90;98.30;;;;;;5113738;28;19916;-78
2021/12/14 08:25:39;;;;;;;;;;;7.90;98.30;;;;;;5114567;28;20013;-81
2021/12/14 08:28:06;;;;;;;;;;;7.90;98.40;;;;;;5113734;28;19923;-78
2021/12/14 08:30:33;;;;;;;;;;;7.90;98.30;;;;;;5114860;28;19916;-77
2021/12/14 08:33:01;;;;;;;;;;;8.00;98.20;;;;;;5114685;28;20358;-78
2021/12/14 08:35:27;;;;;;;;;;;8.00;98.20;;;;;;5096881;28;20329;-79
2021/12/14 08:37:57;;;;;;;;;;;7.90;98.20;;;;;;5096929;28;19961;-80
2021/12/14 08:40:25;;;;;;;;;;;8.00;98.20;;;;;;5113538;28;20389;-79
2021/12/14 08:43:03;;;;;;;;;;;8.00;98.10;;;;;;5096485;28;19920;-77
2021/12/14 08:45:30;;;;;;;;;;;8.00;98.20;;;;;;5113451;28;20371;-80
2021/12/14 08:48:05;;;;;;;;;;;8.00;98.30;;;;;;5113869;28;19919;-79
2021/12/14 08:50:32;;;;;;;;;;;8.00;98.30;;;;;;5096695;28;19922;-78
2021/12/14 08:52:58;;;;;;;;;;;7.90;98.50;;;;;;5113536;28;19920;-76
2021/12/14 08:55:26;;;;;;;;;;;7.90;98.60;;;;;;5113914;28;19977;-78
2021/12/14 08:57:51;;;;;;;;;;;8.00;98.40;;;;;;5113560;28;19915;-79
2021/12/14 09:00:22;;;;;;;;;;;8.00;98.50;;;;;;5096566;28;19964;-80
2021/12/14 09:02:52;;;;;;;;;;;8.00;98.40;;;;;;5096604;28;19920;-78
2021/12/14 09:05:29;;;;;;;;;;;8.00;98.40;;;;;;5080082;28;19920;-80
2021/12/14 09:07:55;;;;;;;;;;;8.00;98.40;;;;;;5113270;28;19919;-78
2021/12/14 09:10:22;;;;;;;;;;;8.00;98.40;;;;;;5113554;28;19916;-76
2021/12/14 09:12:50;;;;;;;;;;;8.00;98.40;;;;;;5096156;28;19969;-79
2021/12/14 09:15:20;;;;;;;;;;;8.00;98.40;;;;;;5113109;28;19916;-79
2021/12/14 09:17:46;;;;;;;;;;;8.00;98.60;;;;;;5113147;28;19915;-78
2021/12/14 09:20:15;;;;;;;;;;;8.00;98.70;;;;;;5113460;28;19923;-78
2021/12/14 09:22:45;;;;;;;;;;;8.00;98.70;;;;;;5112890;28;20349;-79
2021/12/14 09:25:14;;;;;;;;;;;8.00;98.80;;;;;;5113063;28;19916;-79
2021/12/14 09:27:40;;;;;;;;;;;8.00;98.80;;;;;;5113020;28;19915;-78
2021/12/14 09:30:08;;;;;;;;;;;8.00;98.70;;;;;;5113014;28;19941;-77
2021/12/14 09:32:36;;;;;;;;;;;7.90;98.70;;;;;;5112457;28;19915;-78
2021/12/14 09:35:03;;;;;;;;;;;7.90;98.70;;;;;;5095962;28;19919;-78
2021/12/14 09:37:31;;;;;;;;;;;7.90;98.80;;;;;;5096177;28;19919;-77
2021/12/14 09:39:58;;;;;;;;;;;7.90;98.70;;;;;;5095859;28;19986;-79
2021/12/14 09:42:29;;;;;;;;;;;8.00;98.80;;;;;;5112858;28;19920;-79
2021/12/14 09:44:56;;;;;;;;;;;7.90;98.70;;;;;;5112892;28;19955;-80
2021/12/14 09:47:25;;;;;;;;;;;8.00;98.60;;;;;;5113101;28;19949;-77
2021/12/14 09:49:51;;;;;;;;;;;8.00;98.80;;;;;;5096097;28;20381;-79
2021/12/14 09:52:27;;;;;;;;;;;7.90;98.80;;;;;;5112724;28;20032;-79
2021/12/14 09:54:53;;;;;;;;;;;8.00;98.90;;;;;;5096019;28;20006;-79
2021/12/14 09:57:21;;;;;;;;;;;8.00;99.00;;;;;;5113158;28;19958;-77
2021/12/14 09:59:47;;;;;;;;;;;8.00;98.80;;;;;;5095674;28;20379;-77
2021/12/14 10:02:21;;;;;;;;;;;8.00;98.90;;;;;;5112616;28;19919;-80
2021/12/14 10:04:59;;;;;;;;;;;8.00;98.80;;;;;;5112620;28;20367;-79
2021/12/14 10:07:25;;;;;;;;;;;8.10;98.80;;;;;;5113488;28;19916;-78
2021/12/14 10:09:52;;;;;;;;;;;8.10;98.80;;;;;;5112699;28;20295;-80
2021/12/14 10:14:51;;;;;;;;;;;8.10;98.70;;;;;;5112754;28;20278;-78
2021/12/14 10:17:18;;;;;;;;;;;8.10;98.60;;;;;;5112341;28;19998;-77
2021/12/14 10:19:44;;;;;;;;;;;8.10;98.60;;;;;;5095514;28;19922;-79
2021/12/14 10:22:12;;;;;;;;;;;8.10;99.00;;;;;;5112335;28;19920;-81
2021/12/14 10:24:38;;;;;;;;;;;8.20;98.70;;;;;;5112432;28;19915;-78
2021/12/14 10:27:06;;;;;;;;;;;8.20;98.80;;;;;;5111950;28;19923;-80
2021/12/14 10:29:32;;;;;;;;;;;8.20;99.00;;;;;;5111234;28;20342;-79
2021/12/14 10:32:04;;;;;;;;;;;8.20;99.10;;;;;;5095348;28;19958;-78
2021/12/14 10:34:33;;;;;;;;;;;8.20;99.10;;;;;;5112139;28;19915;-78
2021/12/14 10:37:09;;;;;;;;;;;8.30;99.00;;;;;;5112302;28;19916;-77
2021/12/14 10:39:40;;;;;;;;;;;8.30;98.90;;;;;;5095328;28;19941;-79
2021/12/14 10:44:53;;;;;;;;;;;8.30;98.80;;;;;;5116495;28;20279;-78
2021/12/14 10:47:21;;;;;;;;;;;8.40;98.70;;;;;;5099371;28;20424;-77
2021/12/14 10:49:46;;;;;;;;;;;8.40;98.80;;;;;;5099431;28;20358;-77
2021/12/14 10:52:16;;;;;;;;;;;8.40;98.80;;;;;;5116008;28;19958;-78
2021/12/14 10:54:43;;;;;;;;;;;8.40;98.70;;;;;;5098903;28;19924;-77
2021/12/14 10:57:10;;;;;;;;;;;8.40;98.80;;;;;;5115955;28;19951;-77
2021/12/14 10:59:38;;;;;;;;;;;8.40;98.70;;;;;;5116110;28;19985;-77
2021/12/14 11:02:04;;;;;;;;;;;8.50;98.70;;;;;;5115704;28;19926;-80
2021/12/14 11:04:39;;;;;;;;;;;8.50;98.80;;;;;;5081888;28;19916;-79
2021/12/14 11:07:07;;;;;;;;;;;8.50;98.70;;;;;;5098688;28;19915;-77
2021/12/14 11:09:45;;;;;;;;;;;8.50;98.70;;;;;;5115607;28;19916;-78
2021/12/14 11:12:31;;;;;;;;;;;8.50;98.90;;;;;;5100210;28;19922;-79
2021/12/14 11:15:05;;;;;;;;;;;8.50;98.80;;;;;;5114923;28;19964;-77
2021/12/14 11:20:17;;;;;;;;;;;8.60;98.70;;;;;;5115725;28;20386;-77
2021/12/14 11:22:55;;;;;;;;;;;8.60;98.80;;;;;;5115373;28;19927;-78
2021/12/14 11:25:22;;;;;;;;;;;8.60;98.90;;;;;;5115444;28;19962;-76
2021/12/14 11:27:50;;;;;;;;;;;8.60;98.80;;;;;;5115159;28;20375;-77
2021/12/14 11:30:18;;;;;;;;;;;8.70;98.80;;;;;;5115604;28;19975;-77
2021/12/14 11:33:00;;;;;;;;;;;8.70;98.80;;;;;;5115508;28;20416;-79
2021/12/14 11:35:28;;;;;;;;;;;8.70;98.80;;;;;;5115235;28;19963;-77
2021/12/14 11:37:55;;;;;;;;;;;8.60;98.80;;;;;;5115389;28;20287;-78
2021/12/14 11:40:23;;;;;;;;;;;8.60;98.80;;;;;;5115363;28;19962;-79
2021/12/14 11:42:50;;;;;;;;;;;8.60;98.80;;;;;;5097931;28;19919;-79
2021/12/14 11:45:17;;;;;;;;;;;8.60;98.90;;;;;;5115308;28;19916;-79
2021/12/14 11:47:48;;;;;;;;;;;8.60;98.80;;;;;;5115217;28;19915;-77
2021/12/14 11:50:17;;;;;;;;;;;8.60;99.00;;;;;;5098241;28;19922;-79
2021/12/14 11:52:52;;;;;;;;;;;8.70;99.00;;;;;;5114882;28;19961;-79
2021/12/14 11:55:24;;;;;;;;;;;8.80;99.00;;;;;;5096834;28;20406;-78
2021/12/14 11:58:08;;;;;;;;;;;8.80;99.00;;;;;;5114966;28;19965;-79
2021/12/14 12:00:34;;;;;;;;;;;8.80;99.00;;;;;;5114690;28;20010;-79
2021/12/14 12:03:20;;;;;;;;;;;8.80;99.00;;;;;;5097692;28;20423;-77
2021/12/14 12:06:08;;;;;;;;;;;8.80;99.00;;;;;;5096963;28;19922;-77
2021/12/14 12:11:19;;;;;;;;;;;8.90;98.90;;;;;;5114818;28;19938;-79
2021/12/14 12:13:46;;;;;;;;;;;8.80;98.90;;;;;;5097311;28;19967;-79
2021/12/14 12:16:14;;;;;;;;;;;8.90;98.90;;;;;;5097769;28;19915;-79
2021/12/14 12:19:00;;;;;;;;;;;8.90;99.00;;;;;;5113897;28;19996;-79
2021/12/14 12:21:26;;;;;;;;;;;8.90;98.90;;;;;;5097046;28;19919;-80
2021/12/14 12:23:52;;;;;;;;;;;9.00;98.90;;;;;;5097545;28;20260;-80
2021/12/14 12:26:20;;;;;;;;;;;9.00;98.90;;;;;;5114111;28;20014;-79
2021/12/14 12:28:47;;;;;;;;;;;9.00;99.00;;;;;;5097070;28;19916;-80
2021/12/14 12:31:20;;;;;;;;;;;9.00;98.90;;;;;;5080534;28;19934;-81
2021/12/14 12:33:56;;;;;;;;;;;9.10;99.00;;;;;;5114389;28;20015;-78
2021/12/14 12:36:25;;;;;;;;;;;9.10;99.00;;;;;;5113849;28;19926;-80
2021/12/14 12:39:08;;;;;;;;;;;9.10;98.90;;;;;;5096857;28;20370;-78
2021/12/14 12:41:37;;;;;;;;;;;9.20;99.00;;;;;;5113928;28;20600;-79
2021/12/14 12:44:12;;;;;;;;;;;9.30;99.00;;;;;;5113867;28;20363;-80
2021/12/14 12:46:40;;;;;;;;;;;9.30;99.00;;;;;;5096825;28;19926;-78
2021/12/14 12:49:17;;;;;;;;;;;9.40;99.00;;;;;;5113598;28;20367;-77
2021/12/14 12:51:42;;;;;;;;;;;9.30;99.10;;;;;;5113755;28;19919;-80
2021/12/14 12:54:20;;;;;;;;;;;9.40;99.00;;;;;;5113716;28;19923;-79
2021/12/14 12:56:49;;;;;;;;;;;9.50;98.90;;;;;;5113639;28;19916;-79
2021/12/14 12:59:34;;;;;;;;;;;9.50;98.90;;;;;;5096942;28;20310;-77
2021/12/14 13:02:10;;;;;;;;;;;9.50;98.90;;;;;;5096455;28;19919;-79
2021/12/14 13:04:37;;;;;;;;;;;9.50;98.90;;;;;;5096416;28;20380;-79
2021/12/14 13:07:04;;;;;;;;;;;9.50;98.90;;;;;;5113484;28;20298;-78
2021/12/14 13:09:29;;;;;;;;;;;9.50;98.90;;;;;;5113381;28;19916;-81
2021/12/14 13:11:55;;;;;;;;;;;9.50;98.90;;;;;;5113690;28;20088;-79
2021/12/14 13:14:21;;;;;;;;;;;9.50;99.00;;;;;;5113266;28;20301;-80
2021/12/14 13:16:50;;;;;;;;;;;9.50;98.90;;;;;;5113519;28;19919;-80
2021/12/14 13:19:25;;;;;;;;;;;9.50;98.90;;;;;;5113473;28;19989;-78
2021/12/14 13:21:53;;;;;;;;;;;9.50;98.90;;;;;;5096282;28;19919;-80
2021/12/14 13:24:24;;;;;;;;;;;9.40;98.90;;;;;;5113098;28;19961;-78
2021/12/14 13:26:50;;;;;;;;;;;9.40;98.90;;;;;;5113130;28;20006;-78
2021/12/14 13:29:18;;;;;;;;;;;9.40;98.90;;;;;;5113010;28;19965;-79
2021/12/14 13:31:47;;;;;;;;;;;9.40;99.00;;;;;;5095948;28;19916;-78
2021/12/14 13:34:19;;;;;;;;;;;9.40;99.00;;;;;;5112949;28;19919;-77
2021/12/14 13:36:45;;;;;;;;;;;9.40;99.00;;;;;;5113308;28;19920;-78
2021/12/14 13:39:12;;;;;;;;;;;9.30;99.10;;;;;;5095742;28;19923;-77
2021/12/14 13:41:41;;;;;;;;;;;9.30;99.10;;;;;;5112705;28;19919;-79
2021/12/14 13:44:06;;;;;;;;;;;9.30;99.10;;;;;;5113148;28;19916;-77
2021/12/14 13:46:32;;;;;;;;;;;9.40;99.00;;;;;;5112765;28;20308;-78
2021/12/14 13:48:58;;;;;;;;;;;9.30;99.10;;;;;;5112950;28;20275;-78
2021/12/14 13:51:26;;;;;;;;;;;9.30;99.10;;;;;;5112654;28;19916;-80
2021/12/14 13:53:55;;;;;;;;;;;9.40;99.00;;;;;;5095715;28;20371;-79
2021/12/14 13:56:30;;;;;;;;;;;9.40;99.00;;;;;;5112638;28;20014;-77
2021/12/14 13:58:59;;;;;;;;;;;9.50;99.00;;;;;;5112636;28;19916;-80
2021/12/14 14:01:36;;;;;;;;;;;9.40;99.00;;;;;;5095758;28;19919;-79
2021/12/14 14:04:07;;;;;;;;;;;9.40;99.10;;;;;;5112657;28;19961;-78
2021/12/14 14:06:33;;;;;;;;;;;9.40;99.10;;;;;;5112884;28;19920;-78
2021/12/14 14:09:04;;;;;;;;;;;9.50;99.10;;;;;;5096154;28;19915;-79
2021/12/14 14:11:35;;;;;;;;;;;9.50;99.10;;;;;;5112514;28;19915;-78
2021/12/14 14:14:03;;;;;;;;;;;9.50;99.00;;;;;;5112583;28;19957;-78
2021/12/14 14:16:36;;;;;;;;;;;9.50;99.00;;;;;;5112463;28;19960;-80
2021/12/14 14:19:05;;;;;;;;;;;9.40;99.00;;;;;;5116465;28;19943;-77
2021/12/14 14:21:31;;;;;;;;;;;9.40;99.00;;;;;;5116501;28;19966;-77
2021/12/14 14:23:57;;;;;;;;;;;9.50;99.00;;;;;;5099542;28;19920;-80
2021/12/14 14:26:42;;;;;;;;;;;9.50;99.00;;;;;;5116626;28;20010;-78
2021/12/14 14:29:09;;;;;;;;;;;9.50;99.00;;;;;;5115788;28;19958;-78
2021/12/14 14:31:44;;;;;;;;;;;9.50;98.90;;;;;;5116424;28;19916;-78
2021/12/14 14:34:34;;;;;;;;;;;9.50;98.90;;;;;;5116581;28;19964;-77
2021/12/14 14:37:05;;;;;;;;;;;9.50;98.90;;;;;;5099595;28;19927;-78
2021/12/14 14:39:44;;;;;;;;;;;9.50;98.90;;;;;;5116559;28;20283;-78
2021/12/14 14:42:13;;;;;;;;;;;9.50;99.00;;;;;;5116230;28;19988;-79
2021/12/14 14:44:39;;;;;;;;;;;9.50;99.00;;;;;;5099118;28;19916;-77
2021/12/14 14:47:10;;;;;;;;;;;9.50;99.00;;;;;;5116452;28;19916;-80
2021/12/14 14:49:35;;;;;;;;;;;9.50;99.00;;;;;;5116063;28;19919;-81
2021/12/14 14:52:01;;;;;;;;;;;9.40;99.00;;;;;;5115988;28;20065;-78
2021/12/14 14:54:33;;;;;;;;;;;9.50;99.00;;;;;;5115980;28;19988;-78
2021/12/14 14:57:10;;;;;;;;;;;9.50;99.00;;;;;;5115938;28;19915;-78
2021/12/14 14:59:37;;;;;;;;;;;9.40;98.90;;;;;;5098773;28;19915;-78
2021/12/14 15:02:04;;;;;;;;;;;9.50;98.90;;;;;;5115788;28;19919;-79
2021/12/14 15:04:29;;;;;;;;;;;9.50;98.90;;;;;;5115816;28;20398;-79
2021/12/14 15:06:55;;;;;;;;;;;9.40;98.90;;;;;;5115917;28;19916;-78
2021/12/14 15:09:31;;;;;;;;;;;9.40;98.90;;;;;;5098883;28;20344;-78
2021/12/14 15:11:58;;;;;;;;;;;9.30;98.90;;;;;;5098654;28;19922;-79
2021/12/14 15:14:31;;;;;;;;;;;9.40;99.00;;;;;;5098639;28;19969;-77
2021/12/14 15:16:58;;;;;;;;;;;9.40;99.00;;;;;;5098588;28;19973;-80
2021/12/14 15:19:25;;;;;;;;;;;9.50;99.00;;;;;;5115443;28;19922;-78
2021/12/14 15:21:54;;;;;;;;;;;9.40;98.90;;;;;;5115681;28;19919;-78
2021/12/14 15:24:35;;;;;;;;;;;9.40;98.90;;;;;;5116098;28;19916;-79
2021/12/14 15:27:10;;;;;;;;;;;9.40;98.90;;;;;;5115795;28;19988;-78